»·PEaware :: N6112K KBFI-KBLI

N6112K :: KBFI-KBLI

FLIGHT INFORMATION

Flight Status: Arrived
Operator: Privately registered:
United States
More flights under this callsign
Pilot: Brian H. (42676)
Aircraft: Unknown
(K100)
More flights by this aircraft type
Origin: KBFI Boeing Field/King Co Intl
United States
Destination: KBLI Bellingham Intl
United States
More flights between these airports :: More routes between these airports
Route: NEEDLE1 PAE V23 IWANY
File this flight plan on PilotEdge
Remarks:
Altitude:
(Current/Filed)
6,000ft
Speed:
(Current/Filed)
165kts
Departed: 25-May-23 05:26 PM
Arrived: 25-May-23 06:15 PM
Distance/Time
Traveled:
76nm/0:49
Distance/Time
To Go:
Arrived

Flight Plot

Page will automatically refresh every two minutes.

Flight plan parsing failed; only flown route is shown


Map Options




Map Legend


Flown Route
Filed Route
Departure Airport
Arrival Airport
Navaid (VOR, NDB)
Fix

Horizontal Profiles

Position Reports

Time Latitude Longitude Heading Altitude Ground
Speed
25-May-23 16:58 47.526822 -122.297272 147 22ft 0kts
25-May-23 16:59 47.526822 -122.297272 147 22ft 0kts
25-May-23 17:00 47.526822 -122.297272 147 22ft 0kts
25-May-23 17:01 47.526822 -122.297272 147 22ft 0kts
25-May-23 17:02 47.526822 -122.297272 147 22ft 0kts
25-May-23 17:03 47.526822 -122.297272 147 22ft 0kts
25-May-23 17:04 47.526822 -122.297272 147 22ft 0kts
25-May-23 17:05 47.526822 -122.297272 147 22ft 0kts
25-May-23 17:06 47.526822 -122.297272 147 22ft 0kts
25-May-23 17:07 47.526822 -122.297272 147 22ft 0kts
25-May-23 17:08 47.526822 -122.297272 147 22ft 0kts
25-May-23 17:09 47.526822 -122.297272 147 22ft 0kts
25-May-23 17:10 47.526822 -122.297272 147 22ft 0kts
25-May-23 17:11 47.526822 -122.297272 147 22ft 0kts
25-May-23 17:12 47.526822 -122.297272 147 22ft 0kts
25-May-23 17:13 47.526822 -122.297272 147 22ft 0kts
25-May-23 17:14 47.526822 -122.297272 147 22ft 0kts
25-May-23 17:15 47.526822 -122.297272 147 22ft 0kts
25-May-23 17:16 47.526822 -122.297272 147 22ft 0kts
25-May-23 17:17 47.526822 -122.297272 147 22ft 0kts
25-May-23 17:18 47.526822 -122.297272 147 22ft 0kts
25-May-23 17:19 47.526822 -122.297272 147 22ft 0kts
25-May-23 17:20 47.524448 -122.296177 148 26ft 19kts
25-May-23 17:21 47.519881 -122.292272 153 24ft 0kts
25-May-23 17:22 47.519881 -122.292272 153 24ft 0kts
25-May-23 17:23 47.519881 -122.292272 153 24ft 0kts
25-May-23 17:24 47.519186 -122.293341 322 26ft 13kts
25-May-23 17:25 47.539261 -122.310518 329 554ft 123kts
25-May-23 17:26 47.555572 -122.322662 333 1352ft 125kts
25-May-23 17:37 47.526573 -122.296911 343 23ft 0kts
25-May-23 17:38 47.526573 -122.296911 343 23ft 0kts
25-May-23 17:39 47.524548 -122.296249 150 26ft 20kts
25-May-23 17:40 47.519858 -122.292256 159 24ft 0kts
25-May-23 17:41 47.519858 -122.292256 159 24ft 0kts
25-May-23 17:42 47.519796 -122.292223 160 24ft 5kts
25-May-23 17:43 47.529550 -122.302163 327 194ft 112kts
25-May-23 17:44 47.557919 -122.323275 331 1606ft 109kts
25-May-23 17:45 47.583649 -122.345696 330 3384ft 96kts
25-May-23 17:46 47.612011 -122.350838 15 5081ft 115kts
25-May-23 17:47 47.648530 -122.339966 9 6000ft 165kts
25-May-23 17:48 47.695786 -122.329529 7 6004ft 174kts
25-May-23 17:49 47.743883 -122.318487 8 6002ft 174kts
25-May-23 17:50 47.791950 -122.307397 8 6005ft 174kts
25-May-23 17:51 47.839783 -122.296362 8 6005ft 174kts
25-May-23 17:52 47.887753 -122.285276 8 6003ft 174kts
25-May-23 17:53 47.935611 -122.281995 346 6003ft 173kts
25-May-23 17:54 47.983240 -122.296128 348 6008ft 174kts
25-May-23 17:55 48.030838 -122.309892 348 6008ft 174kts
25-May-23 17:56 48.078379 -122.323661 348 6005ft 174kts
25-May-23 17:57 48.126140 -122.337517 348 6008ft 175kts
25-May-23 17:58 48.174166 -122.351474 348 6008ft 175kts
25-May-23 17:59 48.222213 -122.365470 348 6009ft 175kts
25-May-23 18:00 48.270076 -122.379423 348 6006ft 172kts
25-May-23 18:01 48.316617 -122.393022 348 5537ft 167kts
25-May-23 18:02 48.362213 -122.406392 348 4919ft 167kts
25-May-23 18:03 48.407803 -122.419761 348 4225ft 167kts
25-May-23 18:04 48.452136 -122.432875 347 4008ft 157kts
25-May-23 18:05 48.489607 -122.464592 329 4007ft 154kts
25-May-23 18:06 48.526627 -122.497754 329 3936ft 155kts
25-May-23 18:07 48.562611 -122.529996 329 3149ft 148kts
25-May-23 18:08 48.599455 -122.536932 358 2993ft 126kts
25-May-23 18:09 48.633842 -122.537096 358 2990ft 122kts
25-May-23 18:10 48.670870 -122.537094 359 2375ft 137kts
25-May-23 18:11 48.709178 -122.537245 359 1644ft 132kts
25-May-23 18:12 48.743864 -122.537381 359 978ft 118kts
25-May-23 18:13 48.771908 -122.537576 358 495ft 83kts
25-May-23 18:14 48.789444 -122.537504 10 175ft 9kts
25-May-23 18:15 48.790882 -122.536195 38 173ft 6kts
25-May-23 18:16 48.792574 -122.532187 112 172ft 11kts
25-May-23 18:17 48.792521 -122.531364 84 172ft 0kts
25-May-23 18:18 48.792521 -122.531364 84 172ft 0kts

Navigation Log

Ident Type
Flight plan parsing failed, navigation log unavailable